Time;durP1;ratioP1;P1;durP2;ratioP2;P2;SDS_P1;SDS_P2;PMS_P1;PMS_P2;Temp;Humidity;BMP_temperature;BMP_pressure;BME280_temperature;BME280_humidity;BME280_pressure;Samples;Min_cycle;Max_cycle;Signal;HPM_P1;HPM_P2
2024/03/02 00:02:14;;;;;;;2.25;0.88;;;;;;;18.61;41.79;99691.13;5009104;28;20030;-68
2024/03/02 00:04:39;;;;;;;2.22;0.77;;;;;;;18.72;41.93;99795.63;5011961;28;20572;-69
2024/03/02 00:07:06;;;;;;;2.15;0.70;;;;;;;18.78;41.72;99811.66;5014332;28;20038;-67
2024/03/02 00:09:31;;;;;;;1.85;0.75;;;;;;;18.64;41.49;99809.56;5011113;28;20025;-69
2024/03/02 00:11:57;;;;;;;3.30;0.80;;;;;;;18.73;41.44;99815.75;5006439;28;20038;-68
2024/03/02 00:14:24;;;;;;;1.80;0.80;;;;;;;18.69;41.36;99796.75;5015718;28;20033;-69
2024/03/02 00:16:51;;;;;;;2.03;0.60;;;;;;;18.65;41.56;99811.25;5000879;28;20096;-68
2024/03/02 00:19:16;;;;;;;2.10;0.88;;;;;;;18.75;41.49;99822.53;5000824;28;20491;-68
2024/03/02 00:21:41;;;;;;;0.90;0.60;;;;;;;18.74;41.60;99838.50;5007314;28;20029;-69
2024/03/02 00:24:20;;;;;;;2.80;1.08;;;;;;;18.61;41.59;99802.81;5007482;28;20025;-69
2024/03/02 00:26:45;;;;;;;1.38;0.50;;;;;;;18.60;41.62;99805.59;5008743;28;20081;-67
2024/03/02 00:29:15;;;;;;;1.23;0.57;;;;;;;18.69;41.70;99812.56;5011708;28;20539;-68
2024/03/02 00:31:40;;;;;;;1.67;0.60;;;;;;;18.58;41.80;99805.75;5005193;28;20510;-68
2024/03/02 00:34:06;;;;;;;1.85;0.60;;;;;;;18.61;41.71;99816.00;5003992;28;20034;-67
2024/03/02 00:36:31;;;;;;;1.23;0.60;;;;;;;18.60;41.65;99824.06;5007578;28;20030;-68
2024/03/02 00:38:57;;;;;;;0.98;0.47;;;;;;;18.52;41.80;99814.28;5010403;28;20053;-67
2024/03/02 00:41:24;;;;;;;1.67;0.60;;;;;;;18.51;41.80;99815.25;5017878;28;20025;-68
2024/03/02 00:44:01;;;;;;;1.67;0.40;;;;;;;18.55;41.43;99826.31;5013563;28;20033;-69
2024/03/02 00:46:37;;;;;;;1.30;0.50;;;;;;;18.62;41.61;99840.56;5009615;28;20034;-67
2024/03/02 00:49:04;;;;;;;1.35;0.60;;;;;;;18.49;41.88;99811.94;5008325;28;20049;-69
2024/03/02 00:51:33;;;;;;;1.83;0.55;;;;;;;18.59;41.46;99823.22;5010515;28;20061;-67
2024/03/02 00:54:01;;;;;;;1.67;0.65;;;;;;;18.59;41.59;99835.59;5010495;28;20041;-68
2024/03/02 00:56:26;;;;;;;0.70;0.40;;;;;;;18.57;41.67;99821.72;5008706;28;20033;-67
2024/03/02 00:58:52;;;;;;;1.80;0.75;;;;;;;18.57;41.83;99833.09;5002263;28;20476;-68
2024/03/02 01:01:19;;;;;;;1.63;0.60;;;;;;;18.42;41.94;99811.72;5013999;28;20176;-67
2024/03/02 01:03:45;;;;;;;2.10;0.68;;;;;;;18.46;41.68;99826.25;5000582;28;20045;-68
2024/03/02 01:06:10;;;;;;;0.95;0.30;;;;;;;18.54;41.75;99845.78;5007628;28;20029;-69
2024/03/02 01:08:35;;;;;;;1.55;0.60;;;;;;;18.39;41.63;99816.44;5013099;28;20499;-68
2024/03/02 01:11:02;;;;;;;1.65;0.60;;;;;;;18.44;41.54;99820.31;5006950;28;20116;-68
2024/03/02 01:13:27;;;;;;;1.27;0.50;;;;;;;18.43;41.66;99821.28;5018954;28;20033;-67
2024/03/02 01:15:53;;;;;;;1.23;0.50;;;;;;;18.31;41.73;99809.31;5012565;28;20030;-67
2024/03/02 01:18:18;;;;;;;1.08;0.50;;;;;;;18.48;41.61;99834.84;5014774;28;20061;-67
2024/03/02 01:20:44;;;;;;;1.45;0.50;;;;;;;18.41;41.55;99822.41;5014400;28;20091;-68
2024/03/02 01:23:09;;;;;;;0.65;0.38;;;;;;;18.46;41.66;99833.34;5012584;28;20388;-69
2024/03/02 01:25:35;;;;;;;1.45;0.50;;;;;;;18.37;41.61;99821.06;5016761;28;20395;-67
2024/03/02 01:28:01;;;;;;;1.00;0.50;;;;;;;18.33;41.66;99817.91;5001251;28;20080;-69
2024/03/02 01:30:26;;;;;;;0.65;0.38;;;;;;;18.47;41.72;99848.19;5011085;28;20808;-68
2024/03/02 01:32:51;;;;;;;2.05;0.47;;;;;;;18.42;41.67;99832.81;5010593;28;20045;-68
2024/03/02 01:35:16;;;;;;;0.82;0.40;;;;;;;18.36;41.68;99825.50;5014605;28;20065;-68
2024/03/02 01:37:42;;;;;;;1.05;0.50;;;;;;;18.33;41.63;99831.09;5002314;28;20034;-69
2024/03/02 01:40:09;;;;;;;0.80;0.40;;;;;;;18.39;41.64;99845.47;5006034;28;20208;-67
2024/03/02 01:42:38;;;;;;;0.57;0.40;;;;;;;18.34;41.67;99845.09;5001995;28;20090;-68
2024/03/02 01:45:08;;;;;;;1.50;0.50;;;;;;;18.30;41.55;99840.13;5018837;28;20116;-68
2024/03/02 01:47:34;;;;;;;0.93;0.50;;;;;;;18.33;41.39;99830.25;5018532;28;20053;-68
2024/03/02 01:50:00;;;;;;;1.05;0.40;;;;;;;18.28;41.33;99823.63;5005276;28;20042;-68
2024/03/02 01:52:25;;;;;;;1.60;0.40;;;;;;;18.38;41.60;99849.91;5019091;28;20082;-69
2024/03/02 01:54:51;;;;;;;0.82;0.30;;;;;;;18.37;41.58;99852.72;5018787;28;20025;-67
2024/03/02 01:57:17;;;;;;;0.43;0.30;;;;;;;18.29;41.47;99840.25;5005938;28;20040;-68
2024/03/02 01:59:42;;;;;;;0.77;0.40;;;;;;;18.38;41.62;99857.84;5004309;28;20044;-68
2024/03/02 02:02:07;;;;;;;1.13;0.47;;;;;;;18.27;41.48;99839.59;5005843;28;20037;-67
2024/03/02 02:04:33;;;;;;;0.88;0.35;;;;;;;18.34;41.59;99838.03;5006792;28;20056;-68
2024/03/02 02:06:59;;;;;;;1.70;0.32;;;;;;;18.25;41.53;99828.38;5016853;28;20036;-68
2024/03/02 02:09:24;;;;;;;0.60;0.30;;;;;;;18.24;41.49;99829.34;5009768;28;20045;-68
2024/03/02 02:11:51;;;;;;;0.77;0.40;;;;;;;18.24;41.53;99843.34;5007676;28;20103;-68
2024/03/02 02:14:16;;;;;;;0.30;0.30;;;;;;;18.28;41.42;99854.44;5008742;28;20041;-67
2024/03/02 02:16:42;;;;;;;1.50;0.40;;;;;;;18.30;41.51;99839.28;5004241;28;20550;-69
2024/03/02 02:19:07;;;;;;;0.40;0.30;;;;;;;18.25;41.40;99844.19;5010145;28;20395;-69
2024/03/02 02:21:33;;;;;;;1.20;0.30;;;;;;;18.21;41.53;99825.19;5015711;28;20467;-67
2024/03/02 02:23:58;;;;;;;0.65;0.40;;;;;;;18.24;41.46;99839.88;5007932;28;20037;-68
2024/03/02 02:26:24;;;;;;;0.55;0.30;;;;;;;18.21;41.42;99838.38;5014890;28;20036;-67
2024/03/02 02:28:49;;;;;;;0.70;0.30;;;;;;;18.15;41.30;99828.44;5011236;28;20046;-68
2024/03/02 02:31:15;;;;;;;0.40;0.30;;;;;;;18.19;41.60;99831.59;5004316;28;20030;-67
2024/03/02 02:33:42;;;;;;;1.48;0.30;;;;;;;18.26;41.35;99836.13;5001541;28;20040;-68
2024/03/02 02:36:07;;;;;;;0.43;0.32;;;;;;;18.20;41.59;99825.31;5001923;28;20034;-68
2024/03/02 02:38:36;;;;;;;1.05;0.40;;;;;;;18.25;41.46;99838.91;5005109;28;20550;-67
2024/03/02 02:41:02;;;;;;;0.55;0.32;;;;;;;18.26;41.63;99845.84;5013120;28;20038;-67
2024/03/02 02:43:27;;;;;;;0.68;0.30;;;;;;;18.22;41.54;99834.75;5016946;28;20051;-67
2024/03/02 02:45:53;;;;;;;0.60;0.40;;;;;;;18.26;41.15;99822.09;5010699;28;20095;-68
2024/03/02 02:48:18;;;;;;;0.82;0.40;;;;;;;18.25;41.46;99841.56;5013785;28;20058;-67
2024/03/02 02:50:43;;;;;;;0.68;0.35;;;;;;;18.12;41.54;99824.28;5008801;28;20038;-69
2024/03/02 02:53:09;;;;;;;0.70;0.40;;;;;;;18.13;41.30;99825.09;5015234;28;20041;-68
2024/03/02 02:55:37;;;;;;;0.50;0.40;;;;;;;18.17;41.21;99839.66;5014210;28;20045;-67
2024/03/02 02:58:03;;;;;;;1.30;0.43;;;;;;;18.08;41.40;99820.28;5012730;28;20033;-69
2024/03/02 03:00:28;;;;;;;0.95;0.45;;;;;;;18.09;41.34;99824.59;5010218;28;20033;-68
2024/03/02 03:02:53;;;;;;;1.15;0.40;;;;;;;18.12;41.31;99829.56;5009553;28;20038;-68
2024/03/02 03:05:19;;;;;;;0.45;0.30;;;;;;;18.17;41.35;99844.94;5013178;28;20927;-68
2024/03/02 03:07:44;;;;;;;2.40;0.60;;;;;;;18.10;41.26;99825.41;5010774;28;20112;-69
2024/03/02 03:10:10;;;;;;;0.80;0.40;;;;;;;18.12;41.50;99840.09;5007874;28;20029;-67
2024/03/02 03:12:35;;;;;;;0.70;0.40;;;;;;;18.12;41.47;99836.66;5007595;28;20080;-69
2024/03/02 03:15:02;;;;;;;0.82;0.30;;;;;;;18.02;41.34;99831.41;5014777;28;20692;-69
2024/03/02 03:17:28;;;;;;;0.43;0.30;;;;;;;18.15;41.35;99851.31;5021417;28;20061;-67
2024/03/02 03:19:54;;;;;;;0.70;0.32;;;;;;;18.07;41.07;99839.72;5009226;28;20543;-67
2024/03/02 03:22:20;;;;;;;0.52;0.30;;;;;;;18.17;41.36;99862.56;5013403;28;20112;-68
2024/03/02 03:24:45;;;;;;;1.50;0.30;;;;;;;18.07;41.36;99841.50;5011807;28;20112;-68
2024/03/02 03:27:13;;;;;;;0.68;0.40;;;;;;;18.12;41.25;99845.38;5001894;28;20117;-68
2024/03/02 03:29:39;;;;;;;1.52;0.50;;;;;;;18.13;41.10;99848.84;5003451;28;20598;-67
2024/03/02 03:32:06;;;;;;;1.20;0.38;;;;;;;18.15;40.95;99870.63;5012014;28;20128;-68
2024/03/02 03:34:35;;;;;;;0.50;0.30;;;;;;;18.03;41.24;99842.81;5000569;28;20396;-67
2024/03/02 03:37:00;;;;;;;1.20;0.70;;;;;;;18.01;41.10;99850.00;5013090;28;20037;-68
2024/03/02 03:39:25;;;;;;;0.75;0.40;;;;;;;18.11;41.32;99874.53;5010232;28;20034;-67
2024/03/02 03:41:51;;;;;;;0.73;0.40;;;;;;;18.11;41.34;99864.81;5015602;28;20455;-68
2024/03/02 03:44:16;;;;;;;1.05;0.40;;;;;;;18.10;41.17;99873.72;5006320;28;20041;-67
2024/03/02 03:46:41;;;;;;;0.68;0.40;;;;;;;18.12;41.08;99858.56;5012712;28;20034;-69
2024/03/02 03:49:07;;;;;;;0.90;0.40;;;;;;;18.12;41.38;99863.03;5008637;28;20025;-68
2024/03/02 03:51:33;;;;;;;0.60;0.30;;;;;;;18.09;41.32;99861.50;5012451;28;20109;-69
2024/03/02 03:53:58;;;;;;;0.40;0.30;;;;;;;18.04;41.03;99852.34;5001220;28;20034;-68
2024/03/02 03:56:24;;;;;;;1.27;0.55;;;;;;;18.07;41.13;99863.47;5013191;28;20033;-69
2024/03/02 03:58:49;;;;;;;0.50;0.30;;;;;;;18.11;40.99;99872.72;5006136;28;20939;-68
2024/03/02 04:01:14;;;;;;;0.95;0.40;;;;;;;18.04;41.15;99855.00;5018482;28;20034;-69
2024/03/02 04:03:40;;;;;;;0.30;0.30;;;;;;;18.08;41.25;99867.72;4999461;28;20033;-68
2024/03/02 04:06:05;;;;;;;0.93;0.32;;;;;;;18.11;41.06;99870.06;5007883;28;20072;-69
2024/03/02 04:08:30;;;;;;;1.58;0.40;;;;;;;18.00;40.98;99858.91;5012457;28;20914;-68
2024/03/02 04:10:56;;;;;;;0.90;0.40;;;;;;;17.96;41.13;99853.13;5017019;28;20073;-68
2024/03/02 04:13:21;;;;;;;0.60;0.30;;;;;;;18.07;41.21;99874.00;5019351;28;20565;-68
2024/03/02 04:15:47;;;;;;;1.60;0.38;;;;;;;18.06;41.01;99863.59;5001563;28;20069;-69
2024/03/02 04:18:12;;;;;;;0.75;0.30;;;;;;;18.09;40.85;99871.22;5001009;28;20036;-67
2024/03/02 04:20:37;;;;;;;0.30;0.30;;;;;;;17.94;40.92;99847.16;5014763;28;20037;-68
2024/03/02 04:23:03;;;;;;;0.75;0.35;;;;;;;18.05;41.00;99869.84;5013824;28;20061;-68
2024/03/02 04:25:28;;;;;;;0.75;0.30;;;;;;;17.95;41.05;99854.91;5007300;28;20026;-67
2024/03/02 04:27:53;;;;;;;1.02;0.25;;;;;;;18.03;40.97;99870.00;5000592;28;20034;-67
2024/03/02 04:30:18;;;;;;;0.57;0.35;;;;;;;18.03;40.63;99875.25;5018168;28;20042;-67
2024/03/02 04:32:46;;;;;;;0.20;0.20;;;;;;;17.85;40.91;99846.19;5012127;28;20032;-68
2024/03/02 04:35:12;;;;;;;0.88;0.40;;;;;;;17.99;40.87;99867.78;5020423;28;20053;-68
2024/03/02 04:37:38;;;;;;;1.13;0.40;;;;;;;17.97;40.64;99875.84;5019388;28;20395;-68
2024/03/02 04:40:04;;;;;;;0.55;0.30;;;;;;;17.97;40.95;99872.41;5012524;28;20037;-68
2024/03/02 04:42:29;;;;;;;0.40;0.35;;;;;;;17.89;40.88;99859.94;5008678;28;20041;-68
2024/03/02 04:44:54;;;;;;;0.90;0.30;;;;;;;18.00;40.80;99880.84;5018738;28;20065;-68
2024/03/02 04:47:19;;;;;;;0.50;0.30;;;;;;;17.93;40.53;99869.22;5011636;28;20287;-68
2024/03/02 04:49:45;;;;;;;0.30;0.30;;;;;;;18.00;40.77;99883.47;5008513;28;20041;-68
2024/03/02 04:52:10;;;;;;;2.28;0.40;;;;;;;17.94;40.90;99879.63;5006981;28;20525;-68
2024/03/02 04:55:09;;;;;;;0.95;0.47;;;;;;;17.92;40.63;99878.09;5006476;28;20026;-68
2024/03/02 04:57:21;;;;;;;0.75;0.35;;;;;;;17.97;40.53;99881.13;5006814;28;20117;-68
2024/03/02 04:59:46;;;;;;;0.47;0.30;;;;;;;17.88;40.74;99880.22;5009194;28;20121;-68
2024/03/02 05:02:13;;;;;;;0.22;0.20;;;;;;;17.85;40.83;99882.25;5005184;28;20275;-67
2024/03/02 05:04:39;;;;;;;0.52;0.30;;;;;;;17.97;40.93;99890.84;5010286;28;20033;-67
2024/03/02 05:07:04;;;;;;;0.60;0.30;;;;;;;17.97;40.65;99888.22;5014824;28;20445;-68
2024/03/02 05:09:30;;;;;;;0.43;0.30;;;;;;;17.95;40.89;99886.53;5007708;28;20107;-69
2024/03/02 05:12:29;;;;;;;1.43;0.43;;;;;;;17.89;40.58;99881.03;5009441;28;20121;-67
2024/03/02 05:14:55;;;;;;;1.20;0.40;;;;;;;17.95;40.66;99902.34;5008401;28;20279;-67
2024/03/02 05:17:20;;;;;;;1.08;0.30;;;;;;;17.95;40.89;99910.25;5013240;28;20042;-68
2024/03/02 05:19:45;;;;;;;0.68;0.30;;;;;;;17.92;40.94;99897.38;5009198;28;20052;-67
2024/03/02 05:22:10;;;;;;;1.65;0.40;;;;;;;17.91;40.81;99905.44;5007270;28;20502;-68
2024/03/02 05:24:36;;;;;;;0.20;0.20;;;;;;;17.84;41.07;99891.16;5006822;28;20034;-67
2024/03/02 05:27:02;;;;;;;0.73;0.30;;;;;;;17.92;41.00;99899.19;5007540;28;20937;-67
2024/03/02 05:29:27;;;;;;;0.95;0.30;;;;;;;17.87;40.95;99899.59;5009987;28;20403;-68
2024/03/02 05:31:52;;;;;;;1.60;0.40;;;;;;;17.92;40.80;99915.00;5005921;28;20113;-67
2024/03/02 05:34:18;;;;;;;0.60;0.22;;;;;;;17.86;40.57;99905.84;5006030;28;20634;-68
2024/03/02 05:36:43;;;;;;;0.75;0.30;;;;;;;17.88;40.88;99916.25;5007661;28;20025;-70
2024/03/02 05:39:10;;;;;;;0.93;0.30;;;;;;;17.83;40.99;99903.50;5009518;28;20049;-68
2024/03/02 05:41:35;;;;;;;0.65;0.40;;;;;;;17.93;40.44;99928.03;5016102;28;20490;-68
2024/03/02 05:44:01;;;;;;;0.85;0.30;;;;;;;17.93;40.75;99932.50;5006898;28;20038;-69
2024/03/02 05:46:27;;;;;;;0.30;0.28;;;;;;;17.79;40.68;99903.94;5007902;28;20034;-67
2024/03/02 05:48:52;;;;;;;0.45;0.20;;;;;;;17.92;40.78;99931.66;5001252;28;20049;-67
2024/03/02 05:51:18;;;;;;;1.38;0.28;;;;;;;17.91;40.81;99926.50;5019604;28;20039;-67
2024/03/02 05:53:43;;;;;;;1.00;0.30;;;;;;;17.80;40.72;99909.06;5016630;28;20029;-69
2024/03/02 05:56:08;;;;;;;1.02;0.30;;;;;;;17.91;40.72;99923.88;5004026;28;20045;-68
2024/03/02 05:58:57;;;;;;;0.30;0.30;;;;;;;17.86;40.54;99918.19;5005490;28;20025;-67
2024/03/02 06:01:28;;;;;;;1.00;0.30;;;;;;;17.83;40.79;99913.19;5009377;28;20033;-69
2024/03/02 06:03:54;;;;;;;0.60;0.30;;;;;;;17.89;40.82;99917.94;5001867;28;20997;-68
2024/03/02 06:06:20;;;;;;;0.68;0.30;;;;;;;17.82;41.07;99909.75;5010265;28;20037;-69
2024/03/02 06:08:46;;;;;;;0.95;0.30;;;;;;;17.87;41.17;99925.94;5012251;28;20040;-68
2024/03/02 06:11:11;;;;;;;0.60;0.30;;;;;;;17.86;41.21;99934.81;5008091;28;20038;-69
2024/03/02 06:13:36;;;;;;;0.45;0.30;;;;;;;17.84;41.06;99917.50;5003404;28;20037;-68
2024/03/02 06:16:02;;;;;;;0.22;0.20;;;;;;;17.94;40.86;99932.34;5013849;28;20471;-69
2024/03/02 06:18:27;;;;;;;0.20;0.20;;;;;;;17.86;41.09;99921.66;5012648;28;20111;-69
2024/03/02 06:20:53;;;;;;;1.27;0.40;;;;;;;17.98;41.33;99940.78;5007041;28;20293;-69
2024/03/02 06:23:18;;;;;;;0.85;0.30;;;;;;;17.99;41.29;99938.97;5007900;28;20025;-69
2024/03/02 06:25:44;;;;;;;0.38;0.30;;;;;;;17.99;41.56;99937.19;5001150;28;20141;-68
2024/03/02 06:28:09;;;;;;;0.93;0.30;;;;;;;17.97;41.74;99930.38;4999440;28;20030;-68
2024/03/02 06:30:34;;;;;;;0.50;0.30;;;;;;;18.07;41.69;99947.84;5005641;28;20040;-69
2024/03/02 06:33:00;;;;;;;0.75;0.28;;;;;;;18.01;41.44;99929.09;4999440;28;20034;-68
2024/03/02 06:35:25;;;;;;;1.15;0.40;;;;;;;17.99;41.75;99928.44;4998894;28;20034;-68
2024/03/02 06:37:51;;;;;;;1.55;0.52;;;;;;;18.15;41.86;99948.88;5004400;28;20030;-67
2024/03/02 06:40:16;;;;;;;0.57;0.30;;;;;;;18.15;41.63;99947.09;5010167;28;20033;-68
2024/03/02 06:42:41;;;;;;;0.52;0.20;;;;;;;18.10;41.63;99942.28;5015999;28;20036;-69
2024/03/02 06:45:07;;;;;;;0.45;0.30;;;;;;;18.06;41.53;99929.53;5000235;28;20069;-68
2024/03/02 06:47:32;;;;;;;0.28;0.17;;;;;;;18.10;41.50;99936.16;5001909;28;20410;-67
2024/03/02 06:49:58;;;;;;;1.85;0.38;;;;;;;18.23;41.33;99959.53;5014384;28;20026;-68
2024/03/02 06:52:24;;;;;;;0.30;0.28;;;;;;;18.13;41.71;99952.53;5008272;28;20038;-69
2024/03/02 06:54:49;;;;;;;0.82;0.30;;;;;;;18.19;41.41;99958.19;5016993;28;20103;-69
2024/03/02 06:57:16;;;;;;;2.00;0.30;;;;;;;18.30;41.22;99971.19;5002631;28;20363;-70
2024/03/02 06:59:41;;;;;;;0.93;0.40;;;;;;;18.19;41.54;99952.91;4998693;28;20081;-71
2024/03/02 07:02:08;;;;;;;0.20;0.20;;;;;;;18.26;41.48;99968.00;4998436;28;20730;-72
2024/03/02 07:04:34;;;;;;;0.28;0.20;;;;;;;18.19;41.32;99958.19;4999273;28;20030;-71
2024/03/02 07:06:59;;;;;;;1.48;0.38;;;;;;;18.30;41.76;99981.72;4998408;28;20038;-70
2024/03/02 07:09:25;;;;;;;0.57;0.30;;;;;;;18.34;41.65;99985.75;4999375;28;20491;-71
2024/03/02 07:11:51;;;;;;;0.20;0.20;;;;;;;18.29;41.50;99972.13;5001437;28;20053;-71
2024/03/02 07:14:16;;;;;;;1.20;0.40;;;;;;;18.36;41.60;99980.28;5005550;28;20025;-71
2024/03/02 07:16:43;;;;;;;0.73;0.30;;;;;;;18.27;41.56;99972.28;5008320;28;20477;-71
2024/03/02 07:19:08;;;;;;;0.57;0.30;;;;;;;18.23;41.53;99968.28;5012717;28;20040;-71
2024/03/02 07:21:34;;;;;;;1.20;0.38;;;;;;;18.24;41.19;99967.31;5012184;28;20410;-71
2024/03/02 07:24:00;;;;;;;2.25;0.40;;;;;;;18.29;41.13;99977.41;5008877;28;20037;-71
2024/03/02 07:26:25;;;;;;;1.08;0.50;;;;;;;18.36;41.45;99990.84;5012041;28;20029;-70
2024/03/02 07:28:51;;;;;;;0.90;0.30;;;;;;;18.39;41.45;99995.81;5013188;28;20502;-71
2024/03/02 07:31:16;;;;;;;2.20;0.50;;;;;;;18.26;41.64;99980.34;5008844;28;20029;-70
2024/03/02 07:33:44;;;;;;;0.57;0.30;;;;;;;18.34;41.93;99988.38;5012881;28;20040;-70
2024/03/02 07:36:09;;;;;;;1.27;0.40;;;;;;;18.29;42.18;99973.00;5011339;28;20034;-70
2024/03/02 07:38:35;;;;;;;1.00;0.30;;;;;;;18.28;42.08;99978.41;5013864;28;20036;-70
2024/03/02 07:41:00;;;;;;;0.73;0.40;;;;;;;18.33;42.42;99983.25;5006534;28;20387;-71
2024/03/02 07:43:26;;;;;;;1.38;0.57;;;;;;;18.31;42.51;99973.66;5021801;28;20307;-70
2024/03/02 07:45:52;;;;;;;1.70;0.30;;;;;;;18.30;42.29;99977.28;5021238;28;20500;-72
2024/03/02 07:48:18;;;;;;;0.65;0.35;;;;;;;18.37;42.26;99984.59;5017418;28;20507;-69
2024/03/02 07:50:43;;;;;;;1.20;0.40;;;;;;;18.45;42.58;99997.88;5000870;28;20038;-71
2024/03/02 07:53:09;;;;;;;0.80;0.40;;;;;;;18.45;42.33;99998.72;5002067;28;20369;-68
2024/03/02 07:55:34;;;;;;;1.13;0.40;;;;;;;18.34;42.29;99977.81;5001329;28;20030;-71
2024/03/02 07:58:00;;;;;;;2.08;0.57;;;;;;;18.47;42.57;100003.88;5002097;28;20577;-71
2024/03/02 08:00:27;;;;;;;2.53;0.55;;;;;;;18.36;42.37;99990.84;5010396;28;20033;-71
2024/03/02 08:02:52;;;;;;;1.75;0.60;;;;;;;18.33;42.59;99980.63;5005680;28;20053;-72
2024/03/02 08:05:21;;;;;;;3.03;0.50;;;;;;;18.35;42.55;99984.75;5006335;28;20816;-72
2024/03/02 08:07:46;;;;;;;2.47;0.68;;;;;;;18.41;42.13;100001.81;5008299;28;20087;-72
2024/03/02 08:10:12;;;;;;;2.05;0.50;;;;;;;18.47;42.16;100003.88;5012966;28;20038;-74
2024/03/02 08:12:38;;;;;;;1.95;0.68;;;;;;;18.30;42.53;99979.91;5015125;28;20487;-71
2024/03/02 08:15:04;;;;;;;1.52;0.50;;;;;;;18.47;42.57;100004.69;5009121;28;20044;-71
2024/03/02 08:17:30;;;;;;;2.33;0.50;;;;;;;18.36;42.68;99985.56;5009359;28;20505;-74
2024/03/02 08:19:55;;;;;;;2.25;0.60;;;;;;;18.37;42.58;99992.50;5006057;28;20831;-72
2024/03/02 08:22:21;;;;;;;2.78;0.77;;;;;;;18.39;42.93;99991.41;5010525;28;20061;-70
2024/03/02 08:24:47;;;;;;;1.88;0.50;;;;;;;18.39;42.87;99987.91;5007305;28;20399;-67
2024/03/02 08:27:12;;;;;;;1.02;0.30;;;;;;;18.36;42.54;99994.34;5008893;28;20025;-68
2024/03/02 08:29:38;;;;;;;1.50;0.50;;;;;;;18.38;42.81;99989.72;5010326;28;20026;-70
2024/03/02 08:32:03;;;;;;;2.45;0.52;;;;;;;18.38;42.56;99984.44;5002792;28;20115;-73
2024/03/02 08:34:29;;;;;;;2.08;0.50;;;;;;;18.48;42.48;100003.72;5008911;28;20450;-70
2024/03/02 08:36:54;;;;;;;2.75;0.35;;;;;;;18.41;42.32;99996.53;5014631;28;20808;-70
2024/03/02 08:39:20;;;;;;;2.35;0.75;;;;;;;18.36;42.34;99989.06;5014263;28;20074;-70
2024/03/02 08:41:46;;;;;;;3.35;1.05;;;;;;;18.45;42.43;100004.00;5012335;28;20402;-68
2024/03/02 08:44:12;;;;;;;1.27;0.50;;;;;;;18.49;42.16;100015.09;5009575;28;20034;-68
2024/03/02 08:46:38;;;;;;;1.40;0.40;;;;;;;18.44;42.47;100009.44;5010824;28;20041;-68
2024/03/02 08:49:04;;;;;;;0.95;0.47;;;;;;;18.39;42.08;99995.81;5010583;28;20113;-68
2024/03/02 08:51:29;;;;;;;3.33;0.40;;;;;;;18.33;42.03;99994.63;5015515;28;20041;-67
2024/03/02 08:53:57;;;;;;;2.15;0.50;;;;;;;18.47;42.14;100014.41;5013580;28;20029;-67
2024/03/02 08:56:23;;;;;;;1.10;0.40;;;;;;;18.41;41.99;100004.44;5010479;28;20590;-68
2024/03/02 08:58:49;;;;;;;2.20;0.55;;;;;;;18.39;42.07;100006.38;5013129;28;20037;-67
2024/03/02 09:01:15;;;;;;;2.28;0.70;;;;;;;18.34;41.99;99993.66;5007877;28;20061;-68
2024/03/02 09:03:44;;;;;;;2.33;0.40;;;;;;;18.47;42.00;100017.88;5000989;28;20121;-69
2024/03/02 09:06:09;;;;;;;2.30;0.57;;;;;;;18.37;41.73;100001.25;5009218;28;20507;-69
2024/03/02 09:08:36;;;;;;;1.45;0.50;;;;;;;18.42;42.02;100009.56;5012612;28;20026;-68
2024/03/02 09:11:02;;;;;;;1.60;0.50;;;;;;;18.45;41.86;100011.91;5010333;28;20032;-69
2024/03/02 09:13:27;;;;;;;2.70;0.70;;;;;;;18.34;41.71;99996.28;5011947;28;20026;-69
2024/03/02 09:15:53;;;;;;;2.53;0.60;;;;;;;18.31;41.93;99989.50;5013101;28;20048;-69
2024/03/02 09:18:18;;;;;;;1.10;0.47;;;;;;;18.34;41.92;99991.00;5014653;28;20125;-69
2024/03/02 09:20:43;;;;;;;1.98;0.60;;;;;;;18.44;41.83;100012.88;5006352;28;20037;-69
2024/03/02 09:23:09;;;;;;;1.67;0.50;;;;;;;18.33;42.11;99994.63;5012465;28;20485;-69
2024/03/02 09:25:34;;;;;;;2.28;0.50;;;;;;;18.34;41.83;100001.56;5012199;28;20164;-69
2024/03/02 09:27:59;;;;;;;3.50;0.60;;;;;;;18.45;41.75;100013.72;5011806;28;20518;-69
2024/03/02 09:30:24;;;;;;;2.88;0.85;;;;;;;18.25;41.74;99987.44;5009865;28;20123;-69
2024/03/02 09:32:50;;;;;;;1.73;0.45;;;;;;;18.39;41.80;99999.31;5014380;28;20499;-69
2024/03/02 09:35:15;;;;;;;1.95;0.40;;;;;;;18.44;41.74;100019.97;5012730;28;20033;-69
2024/03/02 09:37:40;;;;;;;1.27;0.43;;;;;;;18.46;41.69;100028.56;5013277;28;20044;-69
2024/03/02 09:40:06;;;;;;;1.92;0.57;;;;;;;18.36;41.74;99996.13;5008472;28;20415;-69
2024/03/02 09:42:32;;;;;;;1.40;0.40;;;;;;;18.24;41.47;99977.03;5014357;28;20479;-69
2024/03/02 09:44:58;;;;;;;1.10;0.47;;;;;;;18.44;41.56;100010.25;5007774;28;20036;-69
2024/03/02 09:47:23;;;;;;;0.90;0.47;;;;;;;18.45;41.73;100026.91;5007926;28;20060;-69
2024/03/02 09:49:49;;;;;;;1.92;0.55;;;;;;;18.46;41.65;100013.56;5012487;28;20026;-69
2024/03/02 09:52:14;;;;;;;2.25;0.73;;;;;;;18.42;41.69;100001.66;5011346;28;20538;-70
2024/03/02 09:54:40;;;;;;;1.50;0.60;;;;;;;18.24;41.66;99972.56;5009855;28;20041;-70
2024/03/02 09:57:05;;;;;;;1.20;0.40;;;;;;;18.30;41.76;99989.63;5006004;28;20030;-70
2024/03/02 09:59:31;;;;;;;1.85;0.60;;;;;;;18.45;41.45;100006.66;5014755;28;20511;-69
2024/03/02 10:02:01;;;;;;;1.75;0.60;;;;;;;18.46;41.67;100010.09;5011929;28;20488;-69
2024/03/02 10:04:27;;;;;;;2.58;0.50;;;;;;;18.33;41.39;99977.97;5012271;28;20036;-69
2024/03/02 10:07:09;;;;;;;2.17;0.50;;;;;;;18.42;41.29;100004.31;5011224;28;20032;-70
2024/03/02 10:09:34;;;;;;;1.98;0.63;;;;;;;18.46;41.61;100000.38;5010518;28;20038;-70
2024/03/02 10:12:08;;;;;;;2.15;0.60;;;;;;;18.25;41.40;99966.34;5008499;28;20048;-70
2024/03/02 10:14:33;;;;;;;2.08;0.60;;;;;;;18.45;41.71;99993.47;5006340;28;20753;-70
2024/03/02 10:17:06;;;;;;;1.50;0.40;;;;;;;18.45;41.65;99992.59;5007931;28;20072;-70
2024/03/02 10:19:34;;;;;;;3.05;0.50;;;;;;;18.46;41.65;99999.56;5006245;28;20045;-71
2024/03/02 10:22:06;;;;;;;2.42;0.57;;;;;;;18.45;41.69;99996.09;5008301;28;20033;-71
2024/03/02 10:24:45;;;;;;;1.30;0.40;;;;;;;18.23;41.41;99954.25;5007070;28;20303;-71
2024/03/02 10:27:22;;;;;;;1.70;0.52;;;;;;;18.42;41.47;99984.97;5006546;28;20037;-69
2024/03/02 10:29:48;;;;;;;2.08;0.50;;;;;;;18.42;41.74;99980.56;5006491;28;20037;-69
2024/03/02 10:32:13;;;;;;;1.42;0.43;;;;;;;18.34;41.53;99963.78;5009789;28;20564;-68
2024/03/02 10:34:44;;;;;;;2.33;0.60;;;;;;;18.35;41.12;99973.38;5006743;28;20064;-70
2024/03/02 10:37:11;;;;;;;1.58;0.50;;;;;;;18.25;41.30;99955.78;5007039;28;20026;-72
2024/03/02 10:39:39;;;;;;;1.80;0.40;;;;;;;18.33;41.11;99957.69;5008727;28;20034;-70
2024/03/02 10:42:05;;;;;;;1.73;0.47;;;;;;;18.49;41.26;99984.25;5008881;28;20038;-70
2024/03/02 10:44:32;;;;;;;1.05;0.40;;;;;;;18.29;41.43;99943.97;5007756;28;20045;-70
2024/03/02 10:47:00;;;;;;;2.17;0.60;;;;;;;18.52;41.28;99969.09;5007001;28;20037;-71
2024/03/02 10:49:26;;;;;;;2.47;0.60;;;;;;;18.44;41.43;99954.03;5008044;28;20038;-69
2024/03/02 10:51:51;;;;;;;2.58;0.50;;;;;;;18.38;41.57;99941.44;5008599;28;20479;-68
2024/03/02 10:54:18;;;;;;;3.22;0.60;;;;;;;18.55;41.95;99967.00;5007366;28;20037;-70
2024/03/02 10:56:46;;;;;;;1.83;0.60;;;;;;;18.54;41.75;99970.63;5006164;28;20333;-71
2024/03/02 10:59:32;;;;;;;1.45;0.50;;;;;;;18.57;41.64;99975.59;5005770;28;20164;-71
2024/03/02 11:01:59;;;;;;;3.33;0.70;;;;;;;18.50;42.08;99950.81;5013228;28;20096;-70
2024/03/02 11:04:28;;;;;;;1.35;0.45;;;;;;;18.23;41.91;99912.06;5011077;28;20072;-70
2024/03/02 11:07:09;;;;;;;2.15;0.60;;;;;;;18.56;41.76;99965.19;5009040;28;20061;-70
2024/03/02 11:09:40;;;;;;;1.30;0.57;;;;;;;18.41;42.07;99941.13;5009983;28;20037;-70
2024/03/02 11:12:05;;;;;;;1.40;0.52;;;;;;;18.57;42.04;99964.22;5002723;28;20044;-70
2024/03/02 11:14:33;;;;;;;0.65;0.35;;;;;;;18.57;41.68;99962.41;5016472;28;20029;-72
2024/03/02 11:17:01;;;;;;;2.65;0.57;;;;;;;18.45;42.21;99938.06;5019986;28;20037;-71
2024/03/02 11:19:27;;;;;;;2.20;0.65;;;;;;;18.51;41.85;99948.97;5003439;28;20120;-72
2024/03/02 11:21:53;;;;;;;3.70;0.63;;;;;;;18.52;42.12;99956.75;5014830;28;20071;-70
2024/03/02 11:24:23;;;;;;;3.92;0.77;;;;;;;18.59;42.04;99957.78;5014223;28;20060;-72
2024/03/02 11:26:51;;;;;;;2.22;0.70;;;;;;;18.59;42.08;99962.25;5014549;28;20030;-71
2024/03/02 11:29:35;;;;;;;2.30;0.65;;;;;;;18.61;42.14;99963.78;5013148;28;20030;-71